Latest Weather Observations for Yanakie

IDV60801

Issued at 6:02 pm EST Sunday 26 April 2015 (issued every 30 minutes, with the page automatically refreshed every 10 minutes)

About weather observations | Map of weather stations | Latest weather observations for VIC | Other Formats
Station Details ID: 085301 Name: YANAKIE Lat: -38.81 Lon: 146.19 Height: 13.3 m
Data from the previous 72 hours. | See also: Recent months at Yanakie
Date/Time
EST
Temp
°C
App
Temp
°C
Dew
Point
Rel
Hum
%
Delta-T
°C
Wind Press
QNH
hPa
Press
MSL
hPa
Rain
since 9 am
mm
Dir
 
Spd
km/h
Gust
km/h
Spd
kts
Gust
kts
26/06:00pm 12.8 7.5 8.5 75 2.1 W 26 43 14 23 1017.6 1017.6 0.0
26/05:30pm 13.1 6.7 8.4 73 2.3 WSW 32 50 17 27 1017.4 1017.4 0.0
26/05:00pm 13.4 6.4 8.5 72 2.4 WSW 35 46 19 25 1017.1 1017.1 0.0
26/04:30pm 13.6 8.6 9.5 76 2.1 W 26 33 14 18 1016.9 1016.9 0.0
26/04:00pm 13.3 7.5 9.5 78 1.9 WSW 30 43 16 23 1016.7 1016.7 0.0
26/03:30pm 12.8 6.6 10.2 84 1.3 SW 33 44 18 24 1016.8 1016.8 0.0
26/03:04pm 12.9 7.6 9.7 81 1.6 WSW 28 54 15 29 1016.5 1016.5 0.0
26/03:00pm 13.0 8.0 9.6 80 1.7 WSW 26 37 14 20 1016.5 1016.5 0.0
26/02:30pm 14.5 7.9 8.5 67 3.0 WSW 33 44 18 24 1016.4 1016.4 0.0
26/02:00pm 14.1 7.3 7.9 66 3.1 WSW 33 44 18 24 1016.3 1016.3 0.0
26/01:30pm 17.3 10.9 9.2 59 4.2 WSW 33 43 18 23 1016.2 1016.2 0.0
26/01:00pm 14.2 8.5 8.2 67 3.0 WSW 28 41 15 22 1016.2 1016.2 0.0
26/12:30pm 14.4 8.5 9.2 71 2.7 SW 30 43 16 23 1016.3 1016.3 0.0
26/12:00pm 13.3 7.2 8.4 72 2.4 WSW 30 41 16 22 1016.4 1016.4 0.0
26/11:30am 13.8 6.6 7.6 66 3.0 WSW 35 44 19 24 1016.5 1016.5 0.0
26/11:00am 13.1 6.2 9.0 76 2.1 SW 35 50 19 27 1016.5 1016.5 0.0
26/10:30am 13.1 8.3 9.0 76 2.1 WSW 24 32 13 17 1016.4 1016.4 0.0
26/10:25am 12.9 7.3 8.6 75 2.1 SW 28 46 15 25 1016.4 1016.4 0.0
26/10:00am 13.1 6.1 8.4 73 2.3 SW 35 43 19 23 1016.5 1016.5 0.0
26/09:30am 13.4 7.7 8.3 71 2.5 SW 28 39 15 21 1016.2 1016.2 0.0
26/09:00am 12.9 6.5 7.1 68 2.8 SW 30 43 16 23 1016.1 1016.1 2.6
26/08:30am 12.4 4.9 6.2 66 2.9 SW 35 46 19 25 1016.0 1016.0 2.6
26/08:18am 12.5 5.4 6.3 66 2.9 SW 33 52 18 28 1016.0 1016.0 2.6
26/08:00am 12.1 4.6 6.4 68 2.7 SW 35 44 19 24 1015.7 1015.7 2.6
26/07:30am 12.3 5.2 6.6 68 2.7 SW 33 44 18 24 1015.3 1015.3 2.6
26/07:00am 12.4 5.6 6.9 69 2.6 SW 32 46 17 25 1014.7 1014.7 2.6
26/06:30am 12.5 5.7 7.0 69 2.6 WSW 32 41 17 22 1014.3 1014.3 2.6
26/06:00am 12.4 6.2 7.9 74 2.2 SW 30 41 16 22 1013.9 1013.9 2.6
26/05:30am 12.3 5.5 7.8 74 2.2 SW 33 43 18 23 1013.9 1013.9 2.6
26/05:00am 12.6 6.2 8.5 76 2.0 SW 32 41 17 22 1013.7 1013.7 2.6
26/04:30am 12.7 5.8 9.0 78 1.9 SW 35 46 19 25 1013.4 1013.4 2.6
26/04:00am 12.6 6.3 8.9 78 1.9 SW 32 43 17 23 1013.1 1013.1 2.6
26/03:30am 12.7 6.3 9.2 79 1.8 SW 33 44 18 24 1012.8 1012.8 2.6
26/03:00am 13.0 6.9 9.6 80 1.7 SW 32 41 17 22 1012.7 1012.7 2.6
26/02:30am 13.0 7.4 10.2 83 1.4 SW 30 39 16 21 1012.6 1012.6 2.6
26/02:00am 13.3 8.4 11.2 87 1.1 SW 28 35 15 19 1012.5 1012.5 2.6
26/01:30am 13.3 8.1 11.5 89 1.0 SW 30 39 16 21 1012.5 1012.5 2.6
26/01:00am 13.4 8.4 12.1 92 0.7 SW 30 37 16 20 1012.3 1012.3 2.6
26/12:30am 13.1 7.7 12.2 94 0.5 SW 32 43 17 23 1012.0 1012.0 2.6
26/12:00am 13.4 8.1 12.6 95 0.4 SW 32 39 17 21 1011.6 1011.6 2.6
 
Date/Time
EST
Temp
°C
App
Temp
°C
Dew
Point
Rel
Hum
%
Delta-T
°C
Wind Press
QNH
hPa
Press
MSL
hPa
Rain
since 9 am
mm
Dir
 
Spd
km/h
Gust
km/h
Spd
kts
Gust
kts
25/11:30pm 13.5 11.2 12.9 96 0.3 SW 17 35 9 19 1011.4 1011.4 2.6
25/11:00pm 12.0 10.7 11.2 95 0.4 SSW 9 11 5 6 1011.4 1011.4 2.6
25/10:30pm 12.9 12.2 12.1 95 0.4 SSW 7 9 4 5 1011.2 1011.2 2.6
25/10:00pm 13.7 12.5 12.9 95 0.4 WSW 11 15 6 8 1011.2 1011.2 2.6
25/09:30pm 14.2 11.1 13.4 95 0.4 SW 22 30 12 16 1011.0 1011.0 2.6
25/09:00pm 13.7 11.8 12.9 95 0.4 SW 15 20 8 11 1010.9 1010.9 2.6
25/08:30pm 12.1 12.1 11.2 94 0.5 SSW 2 6 1 3 1010.7 1010.7 2.6
25/08:00pm 12.6 12.7 11.5 93 0.6 WNW 2 4 1 2 1010.5 1010.5 2.6
25/07:30pm 12.4 12.4 11.3 93 0.6 E 2 6 1 3 1010.4 1010.4 2.0
25/07:00pm 11.7 10.7 10.4 92 0.7 NW 6 7 3 4 1010.0 1010.0 0.0
25/06:30pm 11.9 11.3 10.3 90 0.8 NW 4 6 2 3 1009.8 1009.8 0.0
25/06:00pm 12.5 11.4 10.6 88 1.0 WNW 7 9 4 5 1009.5 1009.5 0.0
25/05:30pm 14.5 13.5 12.4 87 1.1 WNW 9 13 5 7 1009.0 1009.0 0.0
25/05:00pm 15.2 14.0 12.9 86 1.3 W 11 15 6 8 1008.9 1008.9 0.0
25/04:30pm 15.2 14.0 12.9 86 1.3 W 11 15 6 8 1008.8 1008.8 0.0
25/04:00pm 15.6 14.1 12.0 79 2.0 WSW 11 13 6 7 1008.6 1008.6 0.0
25/03:30pm 16.5 14.4 11.2 71 2.9 SW 13 15 7 8 1008.3 1008.3 0.0
25/03:00pm 18.1 16.2 11.9 67 3.4 W 13 17 7 9 1008.0 1008.0 0.0
25/02:30pm 18.1 18.3 14.8 81 1.9 WNW 7 11 4 6 1007.7 1007.7 0.0
25/02:00pm 15.9 15.6 13.2 84 1.5 WSW 7 13 4 7 1008.0 1008.0 0.0
25/01:30pm 15.4 12.9 12.3 82 1.7 WSW 17 20 9 11 1007.9 1007.9 0.0
25/01:00pm 16.0 14.2 12.2 78 2.1 WNW 13 19 7 10 1007.9 1007.9 0.0
25/12:30pm 17.2 14.9 12.9 76 2.4 NW 17 22 9 12 1008.0 1008.0 0.0
25/12:00pm 16.5 15.3 12.8 79 2.1 NW 11 17 6 9 1008.1 1008.1 0.0
25/11:30am 16.6 15.2 13.5 82 1.7 NW 13 17 7 9 1008.1 1008.1 0.0
25/11:00am 15.8 14.4 13.3 85 1.4 WNW 13 19 7 10 1008.3 1008.3 0.0
25/10:30am 15.1 13.2 13.0 87 1.2 WNW 15 20 8 11 1008.2 1008.2 0.0
25/10:00am 15.2 13.4 13.4 89 1.0 WNW 15 19 8 10 1008.2 1008.2 0.0
25/09:30am 14.7 12.2 13.4 92 0.7 WNW 19 24 10 13 1007.8 1007.8 0.0
25/09:00am 14.1 11.4 13.0 93 0.6 WNW 19 24 10 13 1007.6 1007.6 0.8
25/08:30am 13.4 12.1 12.5 94 0.5 WNW 11 19 6 10 1007.5 1007.5 0.8
25/08:00am 12.7 12.0 11.9 95 0.4 WNW 7 13 4 7 1007.2 1007.2 0.8
25/07:30am 12.3 10.7 11.5 95 0.4 WNW 11 15 6 8 1006.8 1006.8 0.8
25/07:00am 11.3 10.2 10.5 95 0.4 NW 7 9 4 5 1006.3 1006.3 0.8
25/06:30am 11.8 11.0 11.0 95 0.4 W 6 7 3 4 1006.5 1006.5 0.8
25/06:00am 12.1 10.8 11.3 95 0.4 W 9 13 5 7 1006.3 1006.3 0.8
25/05:30am 11.4 10.5 10.5 94 0.5 WNW 6 7 3 4 1006.1 1006.0 0.8
25/05:00am 11.5 10.4 10.6 94 0.5 NW 7 7 4 4 1005.8 1005.7 0.8
25/04:30am 12.3 11.4 11.4 94 0.5 WNW 7 11 4 6 1005.6 1005.5 0.8
25/04:00am 12.0 11.6 11.2 95 0.4 NW 4 7 2 4 1005.5 1005.4 0.8
25/03:30am 12.1 11.4 11.3 95 0.4 NW 6 7 3 4 1005.6 1005.5 0.8
25/03:00am 12.3 11.1 11.5 95 0.4 NW 9 15 5 8 1005.5 1005.4 0.6
25/02:30am 12.6 11.8 11.7 94 0.5 WNW 7 13 4 7 1005.5 1005.4 0.6
25/02:00am 12.8 10.5 11.9 94 0.5 WNW 15 22 8 12 1005.6 1005.5 0.2
25/01:30am 13.0 10.1 12.2 95 0.4 WNW 19 30 10 16 1005.7 1005.6 0.2
25/01:00am 13.9 12.5 13.3 96 0.3 NW 13 20 7 11 1005.6 1005.5 0.2
25/12:30am 13.6 13.4 13.0 96 0.3 NW 6 9 3 5 1005.4 1005.3 0.0
25/12:00am 13.0 12.6 12.4 96 0.3 WNW 6 9 3 5 1005.3 1005.2 0.0
 
Date/Time
EST
Temp
°C
App
Temp
°C
Dew
Point
Rel
Hum
%
Delta-T
°C
Wind Press
QNH
hPa
Press
MSL
hPa
Rain
since 9 am
mm
Dir
 
Spd
km/h
Gust
km/h
Spd
kts
Gust
kts
24/11:30pm 12.5 12.3 11.7 95 0.4 NW 4 4 2 2 1005.3 1005.2 0.0
24/11:00pm 13.1 12.6 12.5 96 0.3 NNW 7 11 4 6 1005.3 1005.2 0.0
24/10:30pm 12.7 12.0 11.9 95 0.4 NNW 7 9 4 5 1005.3 1005.2 0.0
24/10:00pm 12.2 11.3 11.3 94 0.5 WNW 7 9 4 5 1005.2 1005.1 0.0
24/09:30pm 12.7 11.9 11.8 94 0.5 W 7 9 4 5 1004.9 1004.8 0.0
24/09:00pm 14.1 13.7 13.0 93 0.6 W 7 9 4 5 1004.9 1004.8 0.0
24/08:30pm 14.0 12.8 12.9 93 0.6 NW 11 15 6 8 1004.6 1004.5 0.0
24/08:00pm 14.5 13.8 13.2 92 0.7 WNW 9 11 5 6 1004.3 1004.2 0.0
24/07:30pm 14.4 13.3 13.0 91 0.8 NW 11 13 6 7 1004.3 1004.2 0.0
24/07:00pm 14.6 13.9 13.1 91 0.8 NW 9 13 5 7 1004.2 1004.1 0.0
24/06:30pm 14.9 14.2 13.3 90 0.9 W 9 15 5 8 1003.9 1003.8 0.0
24/06:00pm 15.1 13.6 13.1 88 1.1 W 13 19 7 10 1003.4 1003.3 0.0
24/05:30pm 15.5 13.5 12.8 84 1.5 W 15 19 8 10 1003.0 1002.9 0.0
24/05:00pm 16.5 14.4 12.5 77 2.2 W 15 20 8 11 1002.9 1002.8 0.0
24/04:30pm 17.7 14.5 13.0 74 2.6 W 22 28 12 15 1002.6 1002.5 0.0
24/04:00pm 18.5 15.1 13.8 74 2.7 W 24 32 13 17 1002.6 1002.5 0.0
24/03:30pm 18.1 14.6 13.4 74 2.7 W 24 35 13 19 1002.4 1002.3 0.0
24/03:00pm 17.7 15.1 13.2 75 2.5 WNW 19 24 10 13 1002.4 1002.3 0.0
24/02:30pm 18.4 15.8 13.3 72 2.9 WNW 19 28 10 15 1002.2 1002.1 0.0
24/02:00pm 18.5 14.9 13.1 71 3.1 WNW 24 32 13 17 1002.1 1002.0 0.0
24/01:30pm 18.3 15.6 13.6 74 2.7 WNW 20 30 11 16 1002.2 1002.1 0.0
24/01:00pm 18.1 15.4 13.4 74 2.7 NW 20 33 11 18 1002.5 1002.4 0.0
24/12:30pm 17.8 14.8 13.7 77 2.3 NW 22 32 12 17 1002.7 1002.6 0.0
24/12:00pm 17.6 15.6 15.4 87 1.3 NW 20 28 11 15 1003.1 1003.0 0.0
24/11:30am 17.4 16.3 16.4 94 0.6 NW 17 24 9 13 1003.7 1003.6 0.0
24/11:00am 16.2 16.3 15.6 96 0.4 NW 9 15 5 8 1004.0 1003.9 0.0
24/10:30am 16.1 15.9 15.6 97 0.3 NW 11 17 6 9 1004.2 1004.1 0.0
24/10:00am 15.9 16.0 15.6 98 0.2 NW 9 13 5 7 1004.2 1004.1 0.0
24/09:30am 15.5 15.5 15.3 99 0.1 NW 9 13 5 7 1004.7 1004.6 0.0
24/09:00am 15.5 16.5 15.3 99 0.1 NNW 4 6 2 3 1004.8 1004.7 0.6
24/08:30am 15.3 16.2 15.1 99 0.1 N 4 6 2 3 1004.9 1004.8 0.6
24/08:00am 15.2 16.1 15.0 99 0.1 N 4 6 2 3 1004.8 1004.7 0.6
24/07:30am 15.1 15.6 14.9 99 0.1 N 6 7 3 4 1004.8 1004.7 0.6
24/07:00am 15.1 15.9 14.9 99 0.1 NE 4 4 2 2 1004.4 1004.3 0.6
24/06:30am 15.1 15.9 14.8 98 0.2 NE 4 6 2 3 1004.5 1004.4 0.6
24/06:00am 15.1 15.9 14.8 98 0.2 NNE 4 6 2 3 1004.7 1004.6 0.6
24/05:30am 15.3 16.5 15.0 98 0.2 NNE 2 4 1 2 1005.0 1004.9 0.6
24/05:00am 15.5 16.1 15.2 98 0.2 NE 6 9 3 5 1005.1 1005.0 0.4
24/04:30am 15.5 15.9 15.2 98 0.2 ENE 7 11 4 6 1005.2 1005.1 0.2
24/04:00am 15.4 15.4 15.1 98 0.2 ENE 9 13 5 7 1005.4 1005.3 0.2
24/03:30am 15.4 15.3 14.9 97 0.3 ENE 9 17 5 9 1005.6 1005.5 0.2
24/03:00am 15.3 15.5 14.8 97 0.3 E 7 13 4 7 1006.1 1006.0 0.0
24/02:30am 15.2 15.0 14.7 97 0.3 E 9 17 5 9 1006.7 1006.7 0.0
24/02:00am 15.2 15.0 14.6 96 0.3 E 9 15 5 8 1006.9 1006.9 0.0
24/01:30am 15.1 14.5 14.5 96 0.3 E 11 17 6 9 1007.5 1007.5 0.0
24/01:00am 15.2 14.5 14.4 95 0.5 E 11 15 6 8 1008.1 1008.1 0.0
24/12:30am 15.2 14.9 14.4 95 0.5 E 9 15 5 8 1008.7 1008.7 0.0
24/12:00am 15.3 15.0 14.3 94 0.6 E 9 17 5 9 1009.2 1009.2 0.0
 
Date/Time
EST
Temp
°C
App
Temp
°C
Dew
Point
Rel
Hum
%
Delta-T
°C
Wind Press
QNH
hPa
Press
MSL
hPa
Rain
since 9 am
mm
Dir
 
Spd
km/h
Gust
km/h
Spd
kts
Gust
kts
23/11:30pm 15.4 15.1 14.3 93 0.6 E 9 17 5 9 1009.7 1009.7 0.0
23/11:00pm 15.6 14.9 14.3 92 0.7 E 11 19 6 10 1010.1 1010.1 0.0
23/10:30pm 15.7 14.3 14.4 92 0.7 E 15 24 8 13 1010.4 1010.4 0.0
23/10:00pm 15.7 15.0 14.4 92 0.7 E 11 17 6 9 1010.9 1010.9 0.0
23/09:30pm 15.6 14.9 14.3 92 0.7 ENE 11 19 6 10 1011.3 1011.3 0.0
23/09:00pm 15.6 15.2 14.1 91 0.8 E 9 20 5 11 1011.9 1011.9 0.0
23/08:30pm 15.6 15.2 14.1 91 0.8 E 9 15 5 8 1012.3 1012.3 0.0
23/08:00pm 15.4 15.5 13.9 91 0.8 ESE 6 11 3 6 1012.6 1012.6 0.0
23/07:30pm 15.2 14.3 13.7 91 0.8 ESE 11 17 6 9 1012.4 1012.4 0.0
23/07:00pm 15.4 14.9 13.9 91 0.8 E 9 17 5 9 1012.8 1012.8 0.0
23/06:30pm 15.0 14.8 13.5 91 0.8 ESE 7 13 4 7 1013.1 1013.1 0.0

Other Formats:

Comma delimited format used in spreadsheet applications
http://www.bom.gov.au/fwo/IDV60801/IDV60801.94911.axf

JavaScript Object Notation format (JSON) in row-major order
http://www.bom.gov.au/fwo/IDV60801/IDV60801.94911.json